Time;durP1;ratioP1;P1;durP2;ratioP2;P2;SDS_P1;SDS_P2;PMS_P1;PMS_P2;Temp;Humidity;BMP_temperature;BMP_pressure;BME280_temperature;BME280_humidity;BME280_pressure;Samples;Min_cycle;Max_cycle;Signal;HPM_P1;HPM_P2
2021/09/17 00:01:49;;;;;;;;;;;16.20;99.90;;;;;;5947739;23;19981;-70
2021/09/17 00:04:16;;;;;;;;;;;16.20;99.90;;;;;;5946971;23;25069;-70
2021/09/17 00:06:42;;;;;;;;;;;16.20;99.90;;;;;;5946708;23;20047;-71
2021/09/17 00:09:07;;;;;;;;;;;16.20;99.90;;;;;;5946421;23;20555;-70
2021/09/17 00:11:33;;;;;;;;;;;16.20;99.90;;;;;;5947881;23;25108;-71
2021/09/17 00:13:58;;;;;;;;;;;16.20;99.90;;;;;;5947757;23;25041;-71
2021/09/17 00:16:24;;;;;;;;;;;16.20;99.90;;;;;;5947075;23;25039;-69
2021/09/17 00:18:51;;;;;;;;;;;16.20;99.90;;;;;;5947527;23;20083;-68
2021/09/17 00:21:17;;;;;;;;;;;16.20;99.90;;;;;;5946744;23;25049;-69
2021/09/17 00:23:42;;;;;;;;;;;16.20;99.90;;;;;;5949911;23;25057;-69
2021/09/17 00:26:10;;;;;;;;;;;16.20;99.90;;;;;;5946219;23;20137;-70
2021/09/17 00:28:36;;;;;;;;;;;16.20;99.90;;;;;;5945406;23;25074;-69
2021/09/17 00:31:05;;;;;;;;;;;16.20;99.90;;;;;;5945015;23;25093;-69
2021/09/17 00:33:31;;;;;;;;;;;16.20;99.90;;;;;;5947745;23;25041;-70
2021/09/17 00:35:56;;;;;;;;;;;16.10;99.90;;;;;;5947051;23;19972;-71
2021/09/17 00:38:24;;;;;;;;;;;16.10;99.90;;;;;;5947172;23;25053;-71
2021/09/17 00:40:49;;;;;;;;;;;16.10;99.90;;;;;;5946369;23;25086;-71
2021/09/17 00:43:16;;;;;;;;;;;16.10;99.90;;;;;;5947170;23;25060;-72
2021/09/17 00:45:46;;;;;;;;;;;16.10;99.90;;;;;;5944847;23;25114;-71
2021/09/17 00:48:12;;;;;;;;;;;16.20;99.90;;;;;;5946862;23;20121;-72
2021/09/17 00:50:39;;;;;;;;;;;16.20;99.90;;;;;;5945316;23;20134;-71
2021/09/17 00:53:07;;;;;;;;;;;16.20;99.90;;;;;;5919972;23;25041;-70
2021/09/17 00:55:33;;;;;;;;;;;16.20;99.90;;;;;;5948254;23;20106;-70
2021/09/17 00:57:58;;;;;;;;;;;16.20;99.90;;;;;;5945297;23;25080;-71
2021/09/17 01:00:27;;;;;;;;;;;16.20;99.90;;;;;;5946533;23;25104;-70
2021/09/17 01:02:52;;;;;;;;;;;16.10;99.90;;;;;;5951665;23;20548;-69
2021/09/17 01:05:18;;;;;;;;;;;16.20;99.90;;;;;;5947090;23;25081;-69
2021/09/17 01:07:43;;;;;;;;;;;16.20;99.90;;;;;;5946352;23;20113;-70
2021/09/17 01:10:13;;;;;;;;;;;16.20;99.90;;;;;;5948839;23;25039;-69
2021/09/17 01:12:42;;;;;;;;;;;16.20;99.90;;;;;;5943663;23;19984;-69
2021/09/17 01:15:08;;;;;;;;;;;16.20;99.90;;;;;;5945062;23;20210;-70
2021/09/17 01:17:34;;;;;;;;;;;16.20;99.90;;;;;;5945165;23;25086;-70
2021/09/17 01:20:03;;;;;;;;;;;16.10;99.90;;;;;;5918507;23;25097;-70
2021/09/17 01:22:31;;;;;;;;;;;16.10;99.90;;;;;;5943440;23;20175;-70
2021/09/17 01:24:57;;;;;;;;;;;16.10;99.90;;;;;;5921120;23;20223;-69
2021/09/17 01:27:23;;;;;;;;;;;16.10;99.90;;;;;;5945506;23;25069;-70
2021/09/17 01:29:48;;;;;;;;;;;16.10;99.90;;;;;;5944633;23;25055;-70
2021/09/17 01:32:15;;;;;;;;;;;16.10;99.90;;;;;;5945504;23;25047;-70
2021/09/17 01:34:41;;;;;;;;;;;16.10;99.90;;;;;;5945854;23;20133;-70
2021/09/17 01:37:06;;;;;;;;;;;16.10;99.90;;;;;;5945697;23;20795;-71
2021/09/17 01:39:32;;;;;;;;;;;16.10;99.90;;;;;;5919650;23;25042;-72
2021/09/17 01:42:01;;;;;;;;;;;16.00;99.90;;;;;;5944671;23;20056;-72
2021/09/17 01:44:26;;;;;;;;;;;16.00;99.90;;;;;;5945551;23;25042;-71
2021/09/17 01:46:51;;;;;;;;;;;16.00;99.90;;;;;;5942441;23;20487;-72
2021/09/17 01:49:19;;;;;;;;;;;16.00;99.90;;;;;;5945409;23;20345;-72
2021/09/17 01:51:45;;;;;;;;;;;16.00;99.90;;;;;;5944461;23;20115;-71
2021/09/17 01:54:13;;;;;;;;;;;16.00;99.90;;;;;;5919901;23;25039;-72
2021/09/17 01:56:38;;;;;;;;;;;16.00;99.90;;;;;;5919210;23;20129;-72
2021/09/17 01:59:04;;;;;;;;;;;16.00;99.90;;;;;;5919121;23;20118;-71
2021/09/17 02:01:29;;;;;;;;;;;16.00;99.90;;;;;;5920906;23;20120;-72
2021/09/17 02:03:58;;;;;;;;;;;16.00;99.90;;;;;;5945162;23;20109;-72
2021/09/17 02:06:27;;;;;;;;;;;16.00;99.90;;;;;;5944531;23;25153;-72
2021/09/17 02:08:55;;;;;;;;;;;16.00;99.90;;;;;;5945682;23;20081;-72
2021/09/17 02:11:23;;;;;;;;;;;16.00;99.90;;;;;;5944290;23;25063;-71
2021/09/17 02:13:51;;;;;;;;;;;16.00;99.90;;;;;;5943515;23;20103;-72
2021/09/17 02:16:16;;;;;;;;;;;16.00;99.90;;;;;;5943765;23;20175;-72
2021/09/17 02:18:42;;;;;;;;;;;16.00;99.90;;;;;;5919854;23;25058;-71
2021/09/17 02:21:08;;;;;;;;;;;15.90;99.90;;;;;;5942133;23;20259;-72
2021/09/17 02:23:33;;;;;;;;;;;15.90;99.90;;;;;;5945185;23;25114;-71
2021/09/17 02:25:59;;;;;;;;;;;15.90;99.90;;;;;;5943718;23;20038;-72
2021/09/17 02:28:26;;;;;;;;;;;15.90;99.90;;;;;;5956630;23;20122;-72
2021/09/17 02:30:54;;;;;;;;;;;15.90;99.90;;;;;;5949244;23;20220;-71
2021/09/17 02:33:19;;;;;;;;;;;15.90;99.90;;;;;;5919217;23;25039;-72
2021/09/17 02:35:45;;;;;;;;;;;15.90;99.90;;;;;;5945011;23;20124;-71
2021/09/17 02:38:10;;;;;;;;;;;15.90;99.90;;;;;;5921533;23;20158;-71
2021/09/17 02:40:36;;;;;;;;;;;15.90;99.90;;;;;;5920055;23;25034;-71
2021/09/17 02:43:01;;;;;;;;;;;15.90;99.90;;;;;;5950794;23;20463;-71
2021/09/17 02:45:27;;;;;;;;;;;15.90;99.90;;;;;;5966449;23;20123;-71
2021/09/17 02:47:52;;;;;;;;;;;15.90;99.90;;;;;;5929650;23;25054;-71
2021/09/17 02:50:20;;;;;;;;;;;15.90;99.90;;;;;;5959428;23;25057;-71
2021/09/17 02:52:46;;;;;;;;;;;15.90;99.90;;;;;;5947108;23;20117;-71
2021/09/17 02:55:13;;;;;;;;;;;15.90;99.90;;;;;;5919925;23;20532;-71
2021/09/17 02:57:39;;;;;;;;;;;15.90;99.90;;;;;;5942932;23;20301;-71
2021/09/17 03:00:06;;;;;;;;;;;15.90;99.90;;;;;;5943803;23;25077;-72
2021/09/17 03:02:31;;;;;;;;;;;15.90;99.90;;;;;;5944922;23;20116;-72
2021/09/17 03:04:57;;;;;;;;;;;15.90;99.90;;;;;;5919098;23;25098;-71
2021/09/17 03:07:24;;;;;;;;;;;15.90;99.90;;;;;;5945817;23;20739;-71
2021/09/17 03:09:50;;;;;;;;;;;15.90;99.90;;;;;;5948006;23;25046;-71
2021/09/17 03:12:16;;;;;;;;;;;15.80;99.90;;;;;;5946187;23;25048;-72
2021/09/17 03:14:41;;;;;;;;;;;15.90;99.90;;;;;;5945966;23;25025;-71
2021/09/17 03:17:08;;;;;;;;;;;15.90;99.90;;;;;;5945020;23;20123;-71
2021/09/17 03:19:34;;;;;;;;;;;15.90;99.90;;;;;;5946939;23;25079;-71
2021/09/17 03:22:00;;;;;;;;;;;15.90;99.90;;;;;;5946250;23;20187;-71
2021/09/17 03:24:26;;;;;;;;;;;15.90;99.90;;;;;;5945179;23;20100;-71
2021/09/17 03:26:51;;;;;;;;;;;15.90;99.90;;;;;;5946266;23;25052;-71
2021/09/17 03:29:17;;;;;;;;;;;15.80;99.90;;;;;;5946479;23;25089;-71
2021/09/17 03:31:42;;;;;;;;;;;15.80;99.90;;;;;;5918892;23;25078;-71
2021/09/17 03:34:08;;;;;;;;;;;15.80;99.90;;;;;;5947307;23;25100;-71
2021/09/17 03:36:37;;;;;;;;;;;15.80;99.90;;;;;;5920111;23;25091;-71
2021/09/17 03:39:03;;;;;;;;;;;15.80;99.90;;;;;;5949108;23;20496;-71
2021/09/17 03:41:38;;;;;;;;;;;;;;;;;;;;;
2021/09/17 03:44:06;;;;;;;;;;;15.80;99.90;;;;;;5946935;23;20178;-71
2021/09/17 03:46:32;;;;;;;;;;;15.80;99.90;;;;;;5946536;23;20563;-72
2021/09/17 03:48:58;;;;;;;;;;;15.70;99.90;;;;;;5960624;23;20146;-71
2021/09/17 03:51:24;;;;;;;;;;;15.70;99.90;;;;;;5944926;23;25041;-71
2021/09/17 03:53:49;;;;;;;;;;;15.70;99.90;;;;;;5945602;23;20091;-71
2021/09/17 03:56:18;;;;;;;;;;;15.70;99.90;;;;;;5919922;23;25040;-70
2021/09/17 03:58:44;;;;;;;;;;;15.70;99.90;;;;;;5919638;23;20968;-71
2021/09/17 04:01:12;;;;;;;;;;;15.60;99.90;;;;;;5946694;23;20201;-71
2021/09/17 04:03:37;;;;;;;;;;;15.60;99.90;;;;;;5944574;23;25061;-71
2021/09/17 04:06:04;;;;;;;;;;;15.60;99.90;;;;;;5944355;23;25085;-71
2021/09/17 04:08:30;;;;;;;;;;;15.60;99.90;;;;;;5945213;23;20158;-71
2021/09/17 04:10:55;;;;;;;;;;;15.60;99.90;;;;;;5945225;23;20243;-71
2021/09/17 04:13:28;;;;;;;;;;;15.60;99.90;;;;;;5949843;23;25061;-71
2021/09/17 04:16:01;;;;;;;;;;;15.70;99.90;;;;;;5919062;23;25091;-71
2021/09/17 04:18:29;;;;;;;;;;;15.60;99.90;;;;;;5944617;23;20196;-71
2021/09/17 04:20:56;;;;;;;;;;;15.60;99.90;;;;;;5945223;23;20113;-71
2021/09/17 04:23:22;;;;;;;;;;;15.60;99.90;;;;;;5942378;23;20224;-71
2021/09/17 04:25:47;;;;;;;;;;;15.50;99.90;;;;;;5918046;23;25307;-71
2021/09/17 04:28:13;;;;;;;;;;;15.50;99.90;;;;;;5920411;23;25040;-71
2021/09/17 04:30:38;;;;;;;;;;;15.40;99.90;;;;;;5944660;23;20137;-71
2021/09/17 04:33:04;;;;;;;;;;;15.40;99.90;;;;;;5945996;23;19977;-71
2021/09/17 04:35:29;;;;;;;;;;;15.40;99.90;;;;;;5944165;23;20069;-71
2021/09/17 04:37:58;;;;;;;;;;;15.40;99.90;;;;;;5945757;23;20524;-71
2021/09/17 04:40:26;;;;;;;;;;;15.40;99.90;;;;;;5948004;23;19974;-71
2021/09/17 04:42:52;;;;;;;;;;;15.40;99.90;;;;;;5946655;23;25061;-70
2021/09/17 04:45:17;;;;;;;;;;;15.40;99.90;;;;;;5945615;23;20346;-70
2021/09/17 04:47:43;;;;;;;;;;;15.40;99.90;;;;;;5947268;23;20103;-71
2021/09/17 04:50:09;;;;;;;;;;;15.40;99.90;;;;;;5943993;23;20874;-74
2021/09/17 04:52:35;;;;;;;;;;;15.40;99.90;;;;;;5943218;23;20085;-74
2021/09/17 04:55:04;;;;;;;;;;;15.30;99.90;;;;;;5944281;23;20490;-74
2021/09/17 04:57:32;;;;;;;;;;;15.40;99.90;;;;;;5943409;23;25058;-74
2021/09/17 04:59:57;;;;;;;;;;;15.40;99.90;;;;;;5921655;23;20758;-71
2021/09/17 05:02:23;;;;;;;;;;;15.40;99.90;;;;;;5945367;23;25059;-71
2021/09/17 05:04:53;;;;;;;;;;;15.40;99.90;;;;;;5918560;23;20491;-71
2021/09/17 05:07:24;;;;;;;;;;;15.40;99.90;;;;;;5941783;23;20092;-72
2021/09/17 05:09:50;;;;;;;;;;;15.40;99.90;;;;;;5940255;23;20607;-71
2021/09/17 05:12:21;;;;;;;;;;;15.40;99.90;;;;;;5933426;23;25168;-72
2021/09/17 05:14:49;;;;;;;;;;;15.30;99.90;;;;;;5931807;23;25048;-72
2021/09/17 05:17:20;;;;;;;;;;;15.30;99.90;;;;;;5937871;23;20107;-72
2021/09/17 05:19:48;;;;;;;;;;;15.30;99.90;;;;;;5941896;23;20932;-72
2021/09/17 05:22:13;;;;;;;;;;;15.30;99.90;;;;;;5917485;23;25081;-72
2021/09/17 05:24:39;;;;;;;;;;;15.30;99.90;;;;;;5941823;23;20128;-72
2021/09/17 05:27:12;;;;;;;;;;;15.30;99.90;;;;;;5943823;23;20175;-72
2021/09/17 05:29:39;;;;;;;;;;;15.30;99.90;;;;;;5965637;23;25075;-72
2021/09/17 05:32:05;;;;;;;;;;;15.30;99.90;;;;;;5955228;23;19959;-72
2021/09/17 05:34:38;;;;;;;;;;;15.30;99.90;;;;;;5950115;23;20094;-72
2021/09/17 05:37:04;;;;;;;;;;;15.30;99.90;;;;;;5947759;23;20113;-72
2021/09/17 05:39:29;;;;;;;;;;;15.20;99.90;;;;;;5946602;23;20045;-71
2021/09/17 05:41:55;;;;;;;;;;;15.20;99.90;;;;;;5948189;23;20116;-72
2021/09/17 05:44:20;;;;;;;;;;;15.30;99.90;;;;;;5922856;23;25116;-72
2021/09/17 05:46:45;;;;;;;;;;;15.20;99.90;;;;;;5945850;23;19981;-71
2021/09/17 05:49:11;;;;;;;;;;;15.30;99.90;;;;;;5948172;23;25058;-71
2021/09/17 05:51:37;;;;;;;;;;;15.20;99.90;;;;;;5947124;23;19992;-71
2021/09/17 05:54:06;;;;;;;;;;;15.20;99.90;;;;;;5946611;23;25043;-71
2021/09/17 05:56:31;;;;;;;;;;;15.30;99.90;;;;;;5944186;23;25045;-71
2021/09/17 05:58:56;;;;;;;;;;;15.30;99.90;;;;;;5947479;23;20263;-71
2021/09/17 06:01:22;;;;;;;;;;;15.30;99.90;;;;;;5946263;23;24985;-71
2021/09/17 06:03:50;;;;;;;;;;;15.30;99.90;;;;;;5941414;23;20012;-71
2021/09/17 06:06:18;;;;;;;;;;;15.40;99.90;;;;;;5915020;23;25065;-71
2021/09/17 06:08:43;;;;;;;;;;;15.30;99.90;;;;;;5947026;23;20010;-71
2021/09/17 06:11:11;;;;;;;;;;;15.30;99.90;;;;;;5946110;23;20142;-71
2021/09/17 06:13:37;;;;;;;;;;;15.30;99.90;;;;;;5945616;23;25094;-71
2021/09/17 06:16:03;;;;;;;;;;;15.30;99.90;;;;;;5944590;23;20202;-71
2021/09/17 06:18:29;;;;;;;;;;;15.30;99.90;;;;;;5946289;23;20096;-71
2021/09/17 06:20:54;;;;;;;;;;;15.30;99.90;;;;;;5944213;23;25051;-71
2021/09/17 06:23:20;;;;;;;;;;;15.30;99.90;;;;;;5945552;23;20386;-71
2021/09/17 06:25:45;;;;;;;;;;;15.30;99.90;;;;;;5942777;23;20116;-71
2021/09/17 06:28:11;;;;;;;;;;;15.30;99.90;;;;;;5947124;23;19981;-71
2021/09/17 06:30:36;;;;;;;;;;;15.40;99.90;;;;;;5948364;23;20584;-71
2021/09/17 06:33:02;;;;;;;;;;;15.60;99.90;;;;;;5946376;23;20098;-71
2021/09/17 06:35:27;;;;;;;;;;;15.80;99.90;;;;;;5919792;23;20146;-70
2021/09/17 06:37:54;;;;;;;;;;;16.00;99.90;;;;;;5947371;23;19976;-70
2021/09/17 06:40:20;;;;;;;;;;;16.20;99.90;;;;;;5945162;23;25053;-71
2021/09/17 06:42:47;;;;;;;;;;;16.30;99.90;;;;;;5947279;23;20094;-71
2021/09/17 06:45:12;;;;;;;;;;;16.00;99.90;;;;;;5946241;23;20045;-71
2021/09/17 06:47:42;;;;;;;;;;;16.00;99.90;;;;;;5921978;23;20170;-71
2021/09/17 06:50:07;;;;;;;;;;;15.90;99.90;;;;;;5947366;23;20084;-71
2021/09/17 06:52:33;;;;;;;;;;;15.70;99.90;;;;;;5921139;23;20156;-71
2021/09/17 06:54:58;;;;;;;;;;;15.60;99.90;;;;;;5946648;23;20137;-71
2021/09/17 06:57:24;;;;;;;;;;;15.60;99.90;;;;;;5945162;23;20057;-71
2021/09/17 06:59:49;;;;;;;;;;;15.40;99.90;;;;;;5945281;23;20103;-71
2021/09/17 07:02:15;;;;;;;;;;;15.40;99.90;;;;;;5945409;23;20073;-71
2021/09/17 07:04:40;;;;;;;;;;;15.40;99.90;;;;;;5945663;23;20609;-71
2021/09/17 07:07:06;;;;;;;;;;;15.30;99.90;;;;;;5921679;23;25055;-71
2021/09/17 07:09:31;;;;;;;;;;;15.30;99.90;;;;;;5922196;23;25053;-71
2021/09/17 07:11:57;;;;;;;;;;;15.30;99.90;;;;;;5946240;23;20493;-71
2021/09/17 07:14:22;;;;;;;;;;;15.30;99.90;;;;;;5947516;23;25053;-71
2021/09/17 07:16:47;;;;;;;;;;;15.20;99.90;;;;;;5946584;23;20077;-71
2021/09/17 07:19:13;;;;;;;;;;;15.30;99.90;;;;;;5947816;23;20261;-71
2021/09/17 07:21:38;;;;;;;;;;;15.30;99.90;;;;;;5946378;23;20117;-71
2021/09/17 07:24:04;;;;;;;;;;;15.20;99.90;;;;;;5946108;23;25047;-71
2021/09/17 07:26:29;;;;;;;;;;;15.30;99.90;;;;;;5943231;23;20006;-72
2021/09/17 07:28:55;;;;;;;;;;;15.30;99.90;;;;;;5948128;23;20112;-71
2021/09/17 07:31:21;;;;;;;;;;;15.30;99.90;;;;;;5949676;23;20147;-71
2021/09/17 07:33:47;;;;;;;;;;;15.20;99.90;;;;;;5925410;23;20236;-71
2021/09/17 07:36:13;;;;;;;;;;;15.30;99.90;;;;;;5934463;23;19982;-71
2021/09/17 07:38:38;;;;;;;;;;;15.20;99.90;;;;;;5958308;23;20157;-72
2021/09/17 07:41:04;;;;;;;;;;;15.30;99.90;;;;;;5959748;23;20546;-71
2021/09/17 07:43:29;;;;;;;;;;;15.30;99.90;;;;;;5954431;23;25076;-71
2021/09/17 07:45:55;;;;;;;;;;;15.30;99.90;;;;;;5952226;23;20087;-71
2021/09/17 07:48:20;;;;;;;;;;;15.30;99.90;;;;;;5948693;23;20562;-72
2021/09/17 07:50:46;;;;;;;;;;;15.30;99.90;;;;;;5949360;23;20119;-71
2021/09/17 07:53:12;;;;;;;;;;;15.40;99.90;;;;;;5923802;23;20130;-71
2021/09/17 07:55:37;;;;;;;;;;;15.40;99.90;;;;;;5948404;23;20107;-72
2021/09/17 07:58:04;;;;;;;;;;;15.50;99.90;;;;;;5922080;23;20076;-72
2021/09/17 08:00:29;;;;;;;;;;;15.50;99.90;;;;;;5948783;23;25102;-71
2021/09/17 08:02:55;;;;;;;;;;;15.50;99.90;;;;;;5945846;23;19989;-71
2021/09/17 08:05:20;;;;;;;;;;;15.50;99.90;;;;;;5946128;23;25049;-71
2021/09/17 08:07:45;;;;;;;;;;;15.60;99.90;;;;;;5947670;23;20099;-72
2021/09/17 08:10:11;;;;;;;;;;;15.60;99.90;;;;;;5947439;23;20121;-71
2021/09/17 08:12:37;;;;;;;;;;;15.60;99.90;;;;;;5947297;23;20457;-72
2021/09/17 08:15:03;;;;;;;;;;;15.60;99.90;;;;;;5947161;23;25047;-71
2021/09/17 08:17:28;;;;;;;;;;;15.70;99.90;;;;;;5959778;23;20151;-72
2021/09/17 08:19:54;;;;;;;;;;;15.70;99.90;;;;;;5965101;23;20065;-72
2021/09/17 08:22:19;;;;;;;;;;;15.80;99.90;;;;;;5948595;23;20086;-72
2021/09/17 08:24:44;;;;;;;;;;;15.80;99.90;;;;;;5948429;23;20389;-72
2021/09/17 08:27:10;;;;;;;;;;;15.80;99.90;;;;;;5942467;23;25095;-72
2021/09/17 08:29:36;;;;;;;;;;;15.90;99.90;;;;;;5923197;23;25055;-72
2021/09/17 08:32:01;;;;;;;;;;;16.00;99.90;;;;;;5922930;23;20119;-72
2021/09/17 08:34:27;;;;;;;;;;;16.10;99.90;;;;;;5948157;23;20089;-72
2021/09/17 08:36:52;;;;;;;;;;;16.30;99.90;;;;;;5944566;23;25042;-71
2021/09/17 08:39:18;;;;;;;;;;;16.40;99.90;;;;;;5922667;23;25044;-71
2021/09/17 08:41:44;;;;;;;;;;;16.40;99.90;;;;;;5945643;23;20089;-72
2021/09/17 08:44:09;;;;;;;;;;;16.60;99.90;;;;;;5943477;23;25128;-72
2021/09/17 08:46:38;;;;;;;;;;;16.60;99.90;;;;;;5946015;23;20086;-71
2021/09/17 08:49:03;;;;;;;;;;;16.60;99.90;;;;;;5946401;23;25091;-71
2021/09/17 08:51:29;;;;;;;;;;;16.60;99.90;;;;;;5921873;23;20114;-72
2021/09/17 08:53:54;;;;;;;;;;;16.80;99.90;;;;;;5920642;23;20125;-72
2021/09/17 08:56:20;;;;;;;;;;;16.80;99.90;;;;;;5943334;23;20497;-72
2021/09/17 08:58:46;;;;;;;;;;;16.80;99.90;;;;;;5946455;23;20114;-72
2021/09/17 09:01:28;;;;;;;;;;;16.80;99.90;;;;;;5923013;23;25096;-72
2021/09/17 09:03:56;;;;;;;;;;;16.80;99.90;;;;;;5922232;23;20237;-72
2021/09/17 09:06:21;;;;;;;;;;;16.80;99.90;;;;;;5945667;23;20129;-71
2021/09/17 09:08:49;;;;;;;;;;;16.90;99.90;;;;;;5946605;23;20422;-72
2021/09/17 09:11:17;;;;;;;;;;;17.00;99.90;;;;;;5946325;23;20130;-71
2021/09/17 09:14:01;;;;;;;;;;;17.10;99.90;;;;;;5945901;23;25053;-72
2021/09/17 09:16:27;;;;;;;;;;;17.10;99.90;;;;;;5919082;23;19978;-72
2021/09/17 09:18:53;;;;;;;;;;;17.20;99.90;;;;;;5946287;23;20148;-72
2021/09/17 09:21:28;;;;;;;;;;;17.20;99.90;;;;;;5944501;23;25048;-71
2021/09/17 09:24:32;;;;;;;;;;;17.30;99.90;;;;;;5943564;23;20011;-72
2021/09/17 09:27:08;;;;;;;;;;;17.30;99.90;;;;;;5829829;24;25110;-72
2021/09/17 09:29:34;;;;;;;;;;;17.20;99.90;;;;;;5829639;24;20479;-71
2021/09/17 09:31:59;;;;;;;;;;;17.20;99.90;;;;;;5832374;24;20253;-71
2021/09/17 09:34:43;;;;;;;;;;;17.30;99.90;;;;;;5845613;24;25059;-72
2021/09/17 09:37:10;;;;;;;;;;;17.30;99.90;;;;;;5836441;24;20433;-72
2021/09/17 09:39:54;;;;;;;;;;;17.30;99.90;;;;;;5834524;24;19958;-72
2021/09/17 09:42:27;;;;;;;;;;;17.40;99.90;;;;;;5833099;24;25053;-71
2021/09/17 09:45:11;;;;;;;;;;;17.40;99.90;;;;;;5831607;24;20489;-71
2021/09/17 09:47:37;;;;;;;;;;;17.40;99.90;;;;;;5830814;24;20085;-71
2021/09/17 09:50:35;;;;;;;;;;;17.40;99.90;;;;;;5833107;24;20176;-72
2021/09/17 09:53:01;;;;;;;;;;;17.30;99.90;;;;;;5788053;24;20085;-72
2021/09/17 09:55:27;;;;;;;;;;;17.30;99.90;;;;;;5833136;24;20045;-72
2021/09/17 09:57:54;;;;;;;;;;;17.30;99.90;;;;;;5895434;23;20183;-72
2021/09/17 10:00:20;;;;;;;;;;;17.40;99.90;;;;;;5945152;23;20065;-72
2021/09/17 10:02:46;;;;;;;;;;;17.30;99.90;;;;;;5944131;23;25089;-72
2021/09/17 10:05:12;;;;;;;;;;;17.30;99.90;;;;;;5945854;23;25071;-72
2021/09/17 10:07:38;;;;;;;;;;;17.40;99.90;;;;;;5943445;23;20468;-72
2021/09/17 10:10:06;;;;;;;;;;;17.50;99.90;;;;;;5947262;23;25077;-72
2021/09/17 10:12:32;;;;;;;;;;;17.50;99.90;;;;;;5945977;23;20451;-72
2021/09/17 10:14:57;;;;;;;;;;;17.50;99.90;;;;;;5920418;23;20180;-72
2021/09/17 10:17:25;;;;;;;;;;;17.60;99.90;;;;;;5944846;23;25097;-72
2021/09/17 10:19:52;;;;;;;;;;;17.50;99.90;;;;;;5946494;23;25051;-72
2021/09/17 10:22:31;;;;;;;;;;;17.50;99.90;;;;;;5943779;23;20104;-72
2021/09/17 10:25:07;;;;;;;;;;;17.50;99.90;;;;;;5945552;23;25047;-72
2021/09/17 10:27:34;;;;;;;;;;;17.40;99.90;;;;;;5944344;23;20504;-72
2021/09/17 10:30:00;;;;;;;;;;;17.40;99.90;;;;;;5944000;23;20126;-72
2021/09/17 10:32:26;;;;;;;;;;;17.40;99.90;;;;;;5942681;23;25049;-73
2021/09/17 10:35:10;;;;;;;;;;;17.40;99.90;;;;;;5944359;23;20093;-72
2021/09/17 10:37:57;;;;;;;;;;;17.30;99.90;;;;;;5943497;23;20489;-73
2021/09/17 10:40:32;;;;;;;;;;;17.20;99.90;;;;;;5945255;23;20216;-72
2021/09/17 10:43:10;;;;;;;;;;;17.20;99.90;;;;;;5944612;23;25079;-72
2021/09/17 10:45:39;;;;;;;;;;;17.10;99.90;;;;;;5942934;23;25057;-72
2021/09/17 10:48:07;;;;;;;;;;;17.10;99.90;;;;;;5942764;23;25039;-72
2021/09/17 10:50:51;;;;;;;;;;;17.10;99.90;;;;;;5946136;23;25053;-72
2021/09/17 10:53:40;;;;;;;;;;;17.10;99.90;;;;;;5945331;23;20053;-72
2021/09/17 10:56:12;;;;;;;;;;;17.10;99.90;;;;;;5927829;23;20503;-72
2021/09/17 10:58:41;;;;;;;;;;;17.10;99.90;;;;;;5947559;23;20094;-72
2021/09/17 11:01:10;;;;;;;;;;;17.10;99.90;;;;;;5922349;23;20311;-72
2021/09/17 11:03:36;;;;;;;;;;;17.10;99.90;;;;;;5949722;23;25105;-73
2021/09/17 11:08:45;;;;;;;;;;;17.10;99.90;;;;;;5966301;23;20534;-72
2021/09/17 11:11:23;;;;;;;;;;;17.10;99.90;;;;;;5963331;23;20075;-72
2021/09/17 11:13:49;;;;;;;;;;;17.10;99.90;;;;;;5951444;23;20103;-72
2021/09/17 11:16:16;;;;;;;;;;;17.10;99.90;;;;;;5947367;23;20040;-72
2021/09/17 11:19:01;;;;;;;;;;;17.10;99.90;;;;;;5949278;23;20078;-72
2021/09/17 11:21:30;;;;;;;;;;;17.20;99.90;;;;;;5947108;23;25058;-72
2021/09/17 11:23:56;;;;;;;;;;;17.20;99.90;;;;;;5941629;23;19971;-71
2021/09/17 11:26:23;;;;;;;;;;;17.20;99.90;;;;;;5940329;23;20086;-72
2021/09/17 11:29:03;;;;;;;;;;;17.20;99.90;;;;;;5944924;23;25064;-72
2021/09/17 11:31:34;;;;;;;;;;;17.20;99.90;;;;;;5941349;23;25044;-73
2021/09/17 11:34:01;;;;;;;;;;;17.20;99.90;;;;;;5939030;23;25168;-74
2021/09/17 11:36:37;;;;;;;;;;;17.30;99.90;;;;;;5938785;23;25076;-74
2021/09/17 11:39:17;;;;;;;;;;;17.40;99.90;;;;;;5939706;23;25085;-73
2021/09/17 11:41:42;;;;;;;;;;;17.40;99.90;;;;;;5938246;23;20067;-72
2021/09/17 11:44:08;;;;;;;;;;;17.40;99.90;;;;;;5941715;23;20564;-72
2021/09/17 11:46:35;;;;;;;;;;;17.40;99.90;;;;;;5939064;23;25034;-72
2021/09/17 11:49:00;;;;;;;;;;;17.40;99.90;;;;;;5942380;23;20052;-72
2021/09/17 11:51:26;;;;;;;;;;;17.40;99.90;;;;;;5945258;23;20087;-73
2021/09/17 11:53:51;;;;;;;;;;;17.40;99.90;;;;;;5946928;23;25055;-72
2021/09/17 11:56:17;;;;;;;;;;;17.30;99.90;;;;;;5920227;23;20010;-72
2021/09/17 11:58:46;;;;;;;;;;;17.30;99.90;;;;;;5946672;23;20611;-72
2021/09/17 12:01:17;;;;;;;;;;;17.40;99.90;;;;;;5946829;23;20078;-72
2021/09/17 12:03:43;;;;;;;;;;;17.40;99.90;;;;;;5946046;23;20470;-72
2021/09/17 12:06:10;;;;;;;;;;;17.40;99.90;;;;;;5945694;23;20139;-72
2021/09/17 12:08:36;;;;;;;;;;;17.30;99.90;;;;;;5945870;23;19966;-72
2021/09/17 12:11:02;;;;;;;;;;;17.40;99.90;;;;;;5946463;23;20052;-72
2021/09/17 12:13:28;;;;;;;;;;;17.40;99.90;;;;;;5945734;23;25116;-73
2021/09/17 12:16:00;;;;;;;;;;;17.30;99.90;;;;;;5919741;23;19990;-72
2021/09/17 12:18:28;;;;;;;;;;;17.30;99.90;;;;;;5944900;23;19968;-72
2021/09/17 12:21:02;;;;;;;;;;;17.30;99.90;;;;;;5920517;23;20570;-72
2021/09/17 12:23:30;;;;;;;;;;;17.30;99.90;;;;;;5921674;23;20179;-72
2021/09/17 12:26:04;;;;;;;;;;;17.40;99.90;;;;;;5944212;23;25069;-72
2021/09/17 12:28:30;;;;;;;;;;;17.50;99.90;;;;;;5943724;23;20373;-72
2021/09/17 12:30:55;;;;;;;;;;;17.70;99.90;;;;;;5921046;23;20100;-72
2021/09/17 12:33:22;;;;;;;;;;;17.90;99.90;;;;;;5940541;23;20070;-73
2021/09/17 12:35:49;;;;;;;;;;;18.10;99.90;;;;;;5917924;23;25047;-72
2021/09/17 12:38:16;;;;;;;;;;;18.20;99.90;;;;;;5944881;23;25048;-72
2021/09/17 12:40:46;;;;;;;;;;;18.30;99.90;;;;;;5946731;23;20357;-71
2021/09/17 12:43:14;;;;;;;;;;;18.40;99.90;;;;;;5947087;23;20060;-71
2021/09/17 12:45:43;;;;;;;;;;;18.40;99.90;;;;;;5941272;23;20384;-71
2021/09/17 12:48:10;;;;;;;;;;;18.50;99.90;;;;;;5946378;23;25087;-71
2021/09/17 12:50:40;;;;;;;;;;;18.40;99.90;;;;;;5922958;23;25043;-71
2021/09/17 12:53:10;;;;;;;;;;;18.40;99.90;;;;;;5944280;23;19972;-71
2021/09/17 12:55:36;;;;;;;;;;;18.40;99.90;;;;;;5945396;23;25073;-71
2021/09/17 12:58:14;;;;;;;;;;;18.50;99.90;;;;;;5968255;23;19983;-71
2021/09/17 13:00:41;;;;;;;;;;;18.60;99.90;;;;;;5951330;23;25060;-71
2021/09/17 13:03:07;;;;;;;;;;;18.70;99.90;;;;;;5943707;23;20065;-71
2021/09/17 13:05:34;;;;;;;;;;;18.80;99.90;;;;;;5920527;23;20118;-70
2021/09/17 13:08:00;;;;;;;;;;;18.90;99.90;;;;;;5945198;23;20164;-71
2021/09/17 13:10:26;;;;;;;;;;;18.80;99.90;;;;;;5946548;23;20144;-71
2021/09/17 13:12:51;;;;;;;;;;;18.80;99.90;;;;;;5944906;23;20097;-71
2021/09/17 13:15:16;;;;;;;;;;;18.80;99.90;;;;;;5945267;23;25107;-71
2021/09/17 13:17:42;;;;;;;;;;;18.70;99.90;;;;;;5942804;23;19972;-71
2021/09/17 13:20:11;;;;;;;;;;;18.60;99.90;;;;;;5944522;23;25096;-71
2021/09/17 13:22:36;;;;;;;;;;;18.60;99.90;;;;;;5938681;23;25099;-71
2021/09/17 13:25:03;;;;;;;;;;;18.50;99.90;;;;;;5942618;23;19993;-72
2021/09/17 13:27:28;;;;;;;;;;;18.30;99.90;;;;;;5943589;23;20195;-72
2021/09/17 13:29:54;;;;;;;;;;;18.20;99.90;;;;;;5923759;23;20012;-71
2021/09/17 13:32:19;;;;;;;;;;;18.30;99.90;;;;;;5945931;23;20101;-71
2021/09/17 13:34:45;;;;;;;;;;;18.30;99.90;;;;;;5944600;23;20090;-72
2021/09/17 13:37:10;;;;;;;;;;;18.30;99.90;;;;;;5940954;23;25150;-71
2021/09/17 13:39:35;;;;;;;;;;;18.20;99.90;;;;;;5919353;23;19959;-71
2021/09/17 13:42:01;;;;;;;;;;;18.10;99.90;;;;;;5917265;23;25083;-71
2021/09/17 13:44:26;;;;;;;;;;;18.10;99.90;;;;;;5938305;23;25093;-71
2021/09/17 13:46:52;;;;;;;;;;;18.00;99.90;;;;;;5940919;23;19969;-72
2021/09/17 13:49:17;;;;;;;;;;;18.00;99.90;;;;;;5940996;23;20744;-71
2021/09/17 13:51:43;;;;;;;;;;;18.00;99.90;;;;;;5941874;23;25046;-71
2021/09/17 13:54:08;;;;;;;;;;;17.90;99.90;;;;;;5943443;23;20062;-71
2021/09/17 13:56:34;;;;;;;;;;;18.00;99.90;;;;;;5941426;23;24933;-71
2021/09/17 13:58:59;;;;;;;;;;;18.00;99.90;;;;;;5944536;23;25034;-71
2021/09/17 14:01:24;;;;;;;;;;;18.00;99.90;;;;;;5943188;23;19960;-72
2021/09/17 14:03:50;;;;;;;;;;;18.00;99.90;;;;;;5960269;23;20099;-71
2021/09/17 14:06:16;;;;;;;;;;;18.00;99.90;;;;;;5963785;23;25048;-71
2021/09/17 14:08:41;;;;;;;;;;;18.00;99.90;;;;;;5948717;23;19991;-70
2021/09/17 14:11:07;;;;;;;;;;;18.00;99.90;;;;;;5941918;23;20509;-71
2021/09/17 14:13:33;;;;;;;;;;;17.90;99.90;;;;;;5942226;23;20391;-71
2021/09/17 14:15:59;;;;;;;;;;;17.90;99.90;;;;;;5943268;23;20159;-71
2021/09/17 14:18:25;;;;;;;;;;;17.90;99.90;;;;;;5942554;23;20652;-71
2021/09/17 14:20:50;;;;;;;;;;;17.80;99.90;;;;;;5944155;23;20064;-71
2021/09/17 14:23:16;;;;;;;;;;;17.80;99.90;;;;;;5941734;23;25051;-71